Independence, Ca., Owens Valley School Weather observations

 Day   Time    Ave.   Ave.  Ave.  Vector  Max.   Total    Solar  
  of    of     Air    Rel.  Wind   Wind   Wind  Precip.   Rad.   
Year   Day     Temp.  Hum.  Speed  Dir.   Gust                   
2014   (PST)    F      %     mph   deg.    mph    in.     W/m2  
----------------------------------------------------------------
 357   23:10   43.4    56    1.7   182     2.9    0.00       0
 357   23:20   43.2    56    1.7   224     2.9    0.00       0
 357   23:30   43.0    56    1.9   257     2.5    0.00       0
 357   23:40   42.9    57    1.4   249     2.4    0.00       0
 357   23:50   42.4    58    0.5   248     1.9    0.00       0
 358    0:00   42.9    56    0.6   273     1.9    0.00       0
 358    0:10   42.6    58    1.9   276     2.5    0.00       0
 358    0:20   42.5    60    1.2   258     2.8    0.00       0
 358    0:30   43.1    60    1.5   219     2.2    0.00       0
 358    0:40   42.2    61    1.1   206     2.9    0.00       0
 358    0:50   41.2    63    1.0   243     2.4    0.00       0
 358    1:00   40.7    63    1.1   216     2.4    0.00       0
 358    1:10   40.8    62    1.9   215     3.3    0.00       0
 358    1:20   41.1    61    0.4   202     2.2    0.00       0
 358    1:30   41.0    61    0.6   168     2.4    0.00       0
 358    1:40   41.3    60    1.4   113     3.2    0.00       0
 358    1:50   43.6    56    3.2   194     5.8    0.00       0
 358    2:00   43.4    56    2.2   215     3.8    0.00       0
 358    2:10   42.0    59    2.0   294     5.9    0.00       0
 358    2:20   40.1    65    2.9   270     4.8    0.00       0
 358    2:30   39.7    68    2.5   298     3.9    0.00       0
 358    2:40   40.7    67    2.5   304     3.8    0.00       0
 358    2:50   40.8    67    2.8   322     4.2    0.00       0
 358    3:00   38.5    70    2.9   333     7.1    0.00       0
 358    3:10   37.5    73    2.9   271     4.8    0.00       0
 358    3:20   39.1    71    2.5   275     4.1    0.00       0
 358    3:30   40.4    69    3.7   270     5.1    0.00       0
 358    3:40   41.1    68    2.4   282     5.3    0.00       0
 358    3:50   41.2    68    2.8   282     6.0    0.00       0
 358    4:00   41.5    68    2.4   287     4.1    0.00       0
 358    4:10   41.5    68    2.1   271     3.9    0.00       0
 358    4:20   41.2    68    0.6   192     1.8    0.00       0
 358    4:30   41.0    69    0.8   235     2.4    0.00       0
 358    4:40   40.6    69    0.9   223     2.0    0.00       0
 358    4:50   40.1    70    0.7   283     2.4    0.00       0
 358    5:00   38.7    72    0.8    52     2.7    0.00       0
 358    5:10   38.4    74    1.1   293     2.1    0.00       0
 358    5:20   39.2    73    1.4   250     2.4    0.00       0
 358    5:30   38.6    73    1.8   238     3.3    0.00       0
 358    5:40   39.0    73    1.0   261     2.4    0.00       0
 358    5:50   39.7    71    0.2   272     1.4    0.00       0
 358    6:00   39.6    71    0.6   313     2.1    0.00       0
 358    6:10   39.4    71    1.3   254     3.5    0.00       0
 358    6:20   39.4    71    1.4   265     2.7    0.00       0
 358    6:30   39.4    72    1.3   294     2.3    0.00       4
 358    6:40   39.8    71    1.3   285     2.3    0.00       5
 358    6:50   39.9    71    1.3   275     2.7    0.00       4
 358    7:00   40.1    71    1.2   253     2.2    0.00       8
 358    7:10   39.9    71    0.4   130     1.9    0.00      13
 358    7:20   39.6    72    1.0   317     2.2    0.00      19
 358    7:30   39.7    71    0.7   334     2.3    0.00      29
 358    7:40   39.6    72    0.8   256     2.3    0.00      42
 358    7:50   40.2    70    0.5    13     1.6    0.00      72
 358    8:00   41.1    68    1.2   290     4.1    0.00      78
 358    8:10   41.7    66    0.9    44     2.4    0.00      82
 358    8:20   43.1    63    0.9   269     2.7    0.00     174
 358    8:30   45.4    58    1.1   234     2.5    0.00     196
 358    8:40   47.1    54    0.2   278     1.3    0.00     165
 358    8:50   46.9    55    1.1   108     4.1    0.00     158
 358    9:00   47.4    55    2.1   118     5.4    0.00     245
 358    9:10   48.1    55    2.4   101     6.3    0.00     241
 358    9:20   48.8    56    2.8    77     6.0    0.00     224
 358    9:30   47.3    60    3.8    65     7.5    0.00     304
 358    9:40   47.5    58    3.7    86     6.9    0.00     249
 358    9:50   47.7    56    3.6   123     6.3    0.00     305
 358   10:00   48.6    54    4.0   129     8.4    0.00     324
 358   10:10   49.4    53    5.0   119     9.5    0.00     459
 358   10:20   51.3    48    4.5   111    10.1    0.00     518
 358   10:30   51.8    48    5.7   116    10.1    0.00     440
 358   10:40   52.6    46    5.5   123    10.1    0.00     553
 358   10:50   53.6    45    6.2   137    12.4    0.00     505
 358   11:00   54.8    44    6.3   141    11.2    0.00     641
 358   11:10   55.8    42    5.3   148    10.8    0.00     616
 358   11:20   55.3    43    7.2   133    12.0    0.00     582
 358   11:30   55.2    43    8.0   130    13.3    0.00     644
 358   11:40   56.1    41    6.8   120    13.4    0.00     679
 358   11:50   56.9    40    5.3   115    12.4    0.00     600
 358   12:00   55.9    41    6.2   118    11.9    0.00     426
 358   12:10   54.9    43    6.0   109    10.3    0.00     301
 358   12:20   54.5    44    5.9   106    10.9    0.00     267
 358   12:30   54.5    43    5.8   122    10.4    0.00     248
 358   12:40   54.3    44    5.1   138     9.2    0.00     200
 358   12:50   54.0    44    5.0   143     9.5    0.00     159
 358   13:00   54.2    44    4.2   114     8.9    0.00     147
 358   13:10   54.0    44    5.0   124     8.4    0.00     139
 358   13:20   53.6    45    6.2   134    13.3    0.00     108
 358   13:30   53.5    45    3.4   158    12.2    0.00      82
 358   13:40   53.5    45    3.6   162     7.1    0.00      65
 358   13:50   53.7    45    3.4   152     8.4    0.00      69
 358   14:00   53.8    46    4.2   184     7.3    0.00      58
 358   14:10   54.3    44    4.4   199    14.1    0.00      49
 358   14:20   55.2    42    5.5   190     9.8    0.00      36
 358   14:30   56.5    38    9.2   205    19.9    0.00      28
 358   14:40   56.4    39    7.0   180    18.8    0.00      24
 358   14:50   53.1    47    6.2   100    12.4    0.00      28
 358   15:00   51.8    49    2.3   185     5.1    0.00      22
 358   15:10   51.9    48    4.3   124     8.5    0.00      22
 358   15:20   52.1    47    5.8   114    10.4    0.00      17
 358   15:30   53.1    43    6.6    74    14.1    0.00      11
 358   15:40   53.6    43    6.4    96    14.4    0.00       9
 358   15:50   53.4    43    4.5   190     9.8    0.00       9
 358   16:00   53.3    43    2.6   234     5.2    0.00       5
 358   16:10   53.6    42    3.2   161    10.3    0.00       2
 358   16:20   54.4    38    5.8   140    11.7    0.00       1
 358   16:30   54.2    41    6.1   152    10.8    0.00       0
 358   16:40   53.5    42    7.8   172    14.2    0.00       0
 358   16:50   54.8    37    6.1   178    16.8    0.00       0
 358   17:00   55.5    35    5.2   194    10.0    0.00       0
 358   17:10   55.9    33    4.8   170    11.7    0.00       0
 358   17:20   57.1    32    6.6   111    13.7    0.00       0
 358   17:30   58.1    29    6.7   123    14.9    0.00       0
 358   17:40   58.9    28    6.8    58    12.2    0.00       0
 358   17:50   58.3    30    5.9   102    10.8    0.00       0
 358   18:00   57.1    32    5.2    83    14.7    0.00       0
 358   18:10   57.0    33    8.9   133    17.1    0.00       0
 358   18:20   56.9    33    9.5   152    18.2    0.00       0
 358   18:30   56.4    34    5.8   126    14.6    0.00       0
 358   18:40   55.7    36   10.3   134    18.2    0.00       0
 358   18:50   55.8    35   10.0   141    17.6    0.00       0
 358   19:00   55.7    36    8.9   157    21.1    0.00       0
 358   19:10   55.1    40    5.0   276    21.7    0.00       0
 358   19:20   54.5    42    5.8   309    16.7    0.00       0
 358   19:30   52.3    48    9.3   285    20.7    0.00       0
 358   19:40   51.6    50    5.0   319    10.9    0.00       0
 358   19:50   51.4    49    4.2   290     9.5    0.00       0
 358   20:00   53.0    41    9.1   148    23.6    0.00       0
 358   20:10   53.4    43    5.7   149    14.7    0.00       0
 358   20:20   52.7    46    6.0   118    13.3    0.00       0
 358   20:30   51.6    47   10.8   337    29.6    0.00       0
 358   20:40   49.7    50   10.3   324    24.8    0.00       0
 358   20:50   49.5    51    7.8   307    16.6    0.00       0
 358   21:00   49.6    50    7.8   290    15.0    0.00       0
 358   21:10   51.3    42    7.5   238    18.6    0.00       0
 358   21:20   50.1    45    7.9   229    14.9    0.00       0
 358   21:30   51.7    37    7.7   240    14.7    0.00       0
 358   21:40   51.1    41    7.7   262    15.8    0.00       0
 358   21:50   48.7    50    5.2   342    10.1    0.00       0
 358   22:00   48.1    49    4.5   333     8.4    0.00       0
 358   22:10   48.2    50    9.9   325    28.3    0.00       0
 358   22:20   45.9    46   20.1   334    32.4    0.00       0
 358   22:30   43.1    45   22.0   342    40.9    0.00       0
 358   22:40   41.7    48   22.4   339    41.9    0.00       0
 358   22:50   41.0    48   21.7   326    38.7    0.00       0
 358   23:00   40.7    48   17.5   331    31.2    0.00       0

Return to Independence, Ca. graphs page.


Western Regional Climate Center,wrcc@dri.edu